createdAt,value
2022-10-20T00:00:24.965Z,25.92
2022-10-20T00:03:12.243Z,22.08
2022-10-20T00:05:39.471Z,17.60
2022-10-20T00:08:06.726Z,14.35
2022-10-20T00:10:34.133Z,12.18
2022-10-20T00:13:01.330Z,13.52
2022-10-20T00:15:28.266Z,13.63
2022-10-20T00:17:55.518Z,11.25
2022-10-20T00:20:22.651Z,11.30
2022-10-20T00:22:49.934Z,21.17
2022-10-20T00:25:17.365Z,11.02
2022-10-20T00:27:44.481Z,13.52
2022-10-20T00:30:11.612Z,15.15
2022-10-20T00:32:39.000Z,15.68
2022-10-20T00:35:06.520Z,14.52
2022-10-20T00:37:33.695Z,15.18
2022-10-20T00:40:00.772Z,12.27
2022-10-20T00:42:28.006Z,14.13
2022-10-20T00:44:59.891Z,13.98
2022-10-20T00:47:59.150Z,14.18
2022-10-20T00:50:41.909Z,14.30
2022-10-20T00:53:09.231Z,14.23
2022-10-20T00:55:40.775Z,15.38
2022-10-20T00:58:08.291Z,37.20
2022-10-20T01:00:37.734Z,23.83
2022-10-20T01:03:08.127Z,18.00
2022-10-20T01:05:35.100Z,17.15
2022-10-20T01:08:02.309Z,14.48
2022-10-20T01:10:35.188Z,16.73
2022-10-20T01:13:19.857Z,16.35
2022-10-20T01:15:51.564Z,15.63
2022-10-20T01:18:53.667Z,14.95
2022-10-20T01:21:35.972Z,15.35
2022-10-20T01:24:35.642Z,16.75
2022-10-20T01:27:39.780Z,12.35
2022-10-20T01:30:15.888Z,11.48
2022-10-20T01:32:58.003Z,11.05
2022-10-20T01:35:54.039Z,13.65
2022-10-20T01:40:59.062Z,12.18
2022-10-20T01:43:30.414Z,11.95
2022-10-20T01:46:00.093Z,12.88
2022-10-20T01:48:33.299Z,12.35
2022-10-20T01:51:01.972Z,11.88
2022-10-20T01:53:29.179Z,11.38
2022-10-20T01:55:58.911Z,10.90
2022-10-20T01:58:28.761Z,12.75
2022-10-20T02:01:03.923Z,11.13
2022-10-20T02:03:42.302Z,14.48
2022-10-20T02:06:28.384Z,11.18
2022-10-20T02:09:02.321Z,11.60
2022-10-20T02:11:48.230Z,12.23
2022-10-20T02:14:18.457Z,12.40
2022-10-20T02:16:56.745Z,13.13
2022-10-20T02:19:27.078Z,14.95
2022-10-20T02:21:56.350Z,27.55
2022-10-20T02:24:32.161Z,26.00
2022-10-20T02:27:02.858Z,41.92
2022-10-20T02:29:35.062Z,17.52
2022-10-20T02:32:02.862Z,12.35
2022-10-20T02:34:29.955Z,12.35
2022-10-20T02:36:58.720Z,12.43
2022-10-20T02:39:26.772Z,27.65
2022-10-20T02:41:54.726Z,70.65
2022-10-20T02:44:22.835Z,32.95
2022-10-20T02:46:50.144Z,19.25
2022-10-20T02:49:17.190Z,16.40
2022-10-20T02:51:44.486Z,16.42
2022-10-20T02:54:11.446Z,18.65
2022-10-20T02:56:38.627Z,16.90
2022-10-20T02:59:05.595Z,14.73
2022-10-20T03:01:33.033Z,11.55
2022-10-20T03:04:00.742Z,15.02
2022-10-20T03:06:27.978Z,14.82
2022-10-20T03:08:55.274Z,15.88
2022-10-20T03:11:22.722Z,14.35
2022-10-20T03:13:49.756Z,14.27
2022-10-20T03:16:17.016Z,15.02
2022-10-20T03:18:44.108Z,17.05
2022-10-20T03:21:11.388Z,15.95
2022-10-20T03:23:38.343Z,22.58
2022-10-20T03:26:10.728Z,99.20
2022-10-20T03:28:38.586Z,63.70
2022-10-20T03:31:06.637Z,37.17
2022-10-20T03:33:33.840Z,19.50
2022-10-20T03:36:01.023Z,57.90
2022-10-20T03:38:28.030Z,28.80
2022-10-20T03:40:55.287Z,17.85
2022-10-20T03:43:23.762Z,17.75
2022-10-20T03:45:51.376Z,20.73
2022-10-20T03:48:18.355Z,24.25
2022-10-20T03:50:45.622Z,26.90
2022-10-20T03:53:14.051Z,25.77
2022-10-20T03:55:41.292Z,19.10
2022-10-20T03:58:08.503Z,20.65
2022-10-20T04:00:35.878Z,19.13
2022-10-20T04:03:02.816Z,27.27
2022-10-20T04:05:30.088Z,21.30
2022-10-20T04:07:57.194Z,19.60
2022-10-20T04:10:24.382Z,20.20
2022-10-20T04:12:51.337Z,20.80
2022-10-20T04:15:18.813Z,19.00
2022-10-20T04:17:45.755Z,15.95
2022-10-20T04:20:13.288Z,17.80
2022-10-20T04:22:40.641Z,21.50
2022-10-20T04:25:08.116Z,22.95
2022-10-20T04:27:35.338Z,34.03
2022-10-20T04:30:02.838Z,59.38
2022-10-20T04:32:29.828Z,71.88
2022-10-20T04:34:57.183Z,59.95
2022-10-20T04:37:24.362Z,57.78
2022-10-20T04:39:51.639Z,41.00
2022-10-20T04:42:19.557Z,32.85
2022-10-20T04:44:47.028Z,32.00
2022-10-20T04:47:14.075Z,32.33
2022-10-20T04:49:41.462Z,30.00
2022-10-20T04:52:09.005Z,29.33
2022-10-20T04:54:36.272Z,33.47
2022-10-20T04:57:04.322Z,33.92
2022-10-20T04:59:31.719Z,30.42
2022-10-20T05:02:00.968Z,30.30
2022-10-20T05:04:28.313Z,33.22
2022-10-20T05:06:55.273Z,40.17
2022-10-20T05:09:22.476Z,31.20
2022-10-20T05:11:49.519Z,45.00
2022-10-20T05:14:16.796Z,49.17
2022-10-20T05:16:43.758Z,44.28
2022-10-20T05:19:11.668Z,37.17
2022-10-20T05:21:39.142Z,134.45
2022-10-20T05:24:06.848Z,113.63
2022-10-20T05:26:37.124Z,69.00
2022-10-20T05:29:06.377Z,84.32
2022-10-20T05:31:40.866Z,61.08
2022-10-20T05:34:09.017Z,125.32
2022-10-20T05:36:36.668Z,95.45
2022-10-20T05:39:04.759Z,97.03
2022-10-20T05:41:36.462Z,73.85
2022-10-20T05:44:08.998Z,58.85
2022-10-20T05:46:41.120Z,45.08
2022-10-20T05:49:14.035Z,98.03
2022-10-20T05:51:41.335Z,94.72
2022-10-20T05:54:11.898Z,46.33
2022-10-20T05:56:39.156Z,39.22
2022-10-20T05:59:06.428Z,44.78
2022-10-20T06:01:47.735Z,38.45
2022-10-20T06:04:23.772Z,38.22
2022-10-20T06:06:52.414Z,40.22
2022-10-20T06:09:20.711Z,45.50
2022-10-20T06:11:48.248Z,35.10
2022-10-20T06:14:16.097Z,34.60
2022-10-20T06:16:43.718Z,34.05
2022-10-20T06:19:11.302Z,32.55
2022-10-20T06:21:38.631Z,32.53
2022-10-20T06:24:06.669Z,38.80
2022-10-20T06:26:39.909Z,47.65
2022-10-20T06:29:10.985Z,26.15
2022-10-20T06:31:43.212Z,23.77
2022-10-20T06:34:17.063Z,35.72
2022-10-20T06:36:48.089Z,48.00
2022-10-20T06:39:18.388Z,26.70
2022-10-20T06:41:50.580Z,21.63
2022-10-20T06:44:23.187Z,34.77
2022-10-20T06:46:52.605Z,45.90
2022-10-20T06:49:20.934Z,28.35
2022-10-20T06:51:48.051Z,23.65
2022-10-20T06:54:15.316Z,17.73
2022-10-20T06:56:42.301Z,23.35
2022-10-20T06:59:09.508Z,22.17
2022-10-20T07:01:38.561Z,21.20
2022-10-20T07:04:08.427Z,19.05
2022-10-20T07:06:38.610Z,12.27
2022-10-20T07:09:08.671Z,12.98
2022-10-20T07:11:35.978Z,11.57
2022-10-20T07:14:04.513Z,65.38
2022-10-20T07:16:34.248Z,29.55
2022-10-20T07:19:03.130Z,15.85
2022-10-20T07:21:38.316Z,13.27
2022-10-20T07:24:09.729Z,27.90
2022-10-20T07:26:39.244Z,32.75
2022-10-20T07:29:06.854Z,28.98
2022-10-20T07:31:37.815Z,24.40
2022-10-20T07:34:20.378Z,24.88
2022-10-20T07:36:57.018Z,25.13
2022-10-20T07:39:24.901Z,37.53
2022-10-20T07:41:52.444Z,23.08
2022-10-20T07:44:19.986Z,22.85
2022-10-20T07:46:47.072Z,28.42
2022-10-20T07:49:42.838Z,30.63
2022-10-20T07:52:01.190Z,35.63
2022-10-20T07:54:28.484Z,35.05
2022-10-20T07:56:55.520Z,37.15
2022-10-20T07:59:24.630Z,34.15
2022-10-20T08:01:54.753Z,35.97
2022-10-20T08:04:23.630Z,33.35
2022-10-20T08:06:50.768Z,22.35
2022-10-20T08:09:17.953Z,32.60
2022-10-20T08:11:44.931Z,30.52
2022-10-20T08:14:12.137Z,31.83
2022-10-20T08:16:45.793Z,21.65
2022-10-20T08:19:29.787Z,13.35
2022-10-20T08:21:56.788Z,12.60
2022-10-20T08:24:23.974Z,24.80
2022-10-20T08:26:50.978Z,16.38
2022-10-20T08:29:18.212Z,21.75
2022-10-20T08:31:45.501Z,20.90
2022-10-20T08:34:14.314Z,25.45
2022-10-20T08:36:41.329Z,21.40
2022-10-20T08:39:08.556Z,16.27
2022-10-20T08:42:07.454Z,12.85
2022-10-20T08:44:33.118Z,9.80
2022-10-20T08:47:03.383Z,10.27
2022-10-20T08:49:33.849Z,8.80
2022-10-20T08:52:02.039Z,8.82
2022-10-20T08:54:32.232Z,9.77
2022-10-20T08:56:59.333Z,9.88
2022-10-20T08:59:35.527Z,11.25
2022-10-20T09:02:14.790Z,8.77
2022-10-20T09:04:55.897Z,9.45
2022-10-20T09:07:34.641Z,6.88
2022-10-20T09:10:18.238Z,11.27
2022-10-20T09:12:48.017Z,11.55
2022-10-20T09:15:17.588Z,10.70
2022-10-20T09:17:50.633Z,9.40
2022-10-20T09:20:23.917Z,9.10
2022-10-20T09:22:51.290Z,9.18
2022-10-20T09:25:24.068Z,6.10
2022-10-20T09:27:52.389Z,5.80
2022-10-20T09:30:33.292Z,7.40
2022-10-20T09:33:01.177Z,9.45
2022-10-20T09:35:33.906Z,6.50
2022-10-20T09:38:11.395Z,7.75
2022-10-20T09:40:54.848Z,6.50
2022-10-20T09:43:21.897Z,9.82
2022-10-20T09:45:59.909Z,5.75
2022-10-20T09:48:35.188Z,5.88
2022-10-20T09:51:04.182Z,8.30
2022-10-20T09:53:45.383Z,7.40
2022-10-20T09:56:12.767Z,6.20
2022-10-20T09:58:40.115Z,8.63
2022-10-20T10:01:14.789Z,7.00
2022-10-20T10:03:45.412Z,5.55
2022-10-20T10:06:44.210Z,5.53
2022-10-20T10:09:34.496Z,6.40
2022-10-20T10:12:06.332Z,6.72
2022-10-20T10:14:36.420Z,7.32
2022-10-20T10:17:04.791Z,4.88
2022-10-20T10:19:34.103Z,12.05
2022-10-20T10:22:03.635Z,7.28
2022-10-20T10:24:48.399Z,6.22
2022-10-20T10:27:20.355Z,12.85
2022-10-20T10:29:49.915Z,8.68
2022-10-20T10:32:23.874Z,9.15
2022-10-20T10:35:13.226Z,59.93
2022-10-20T10:37:43.229Z,10.35
2022-10-20T10:40:31.892Z,6.30
2022-10-20T10:42:59.038Z,3.45
2022-10-20T10:45:57.234Z,3.95
2022-10-20T10:48:40.832Z,2.67
2022-10-20T10:51:18.850Z,3.83
2022-10-20T10:53:55.467Z,3.85
2022-10-20T10:56:44.965Z,4.53
2022-10-20T10:59:44.251Z,1.90
2022-10-20T11:02:44.831Z,4.57
2022-10-20T11:05:24.714Z,3.92
2022-10-20T11:08:17.292Z,3.40
2022-10-20T11:11:08.190Z,4.10
2022-10-20T11:13:51.355Z,5.18
2022-10-20T11:16:40.303Z,3.50
2022-10-20T11:19:44.112Z,2.22
2022-10-20T11:22:28.941Z,3.22
2022-10-20T11:25:21.363Z,7.55
2022-10-20T11:27:49.321Z,7.20
2022-10-20T11:30:22.213Z,7.00
2022-10-20T11:33:16.410Z,11.88
2022-10-20T11:35:54.455Z,4.22
2022-10-20T11:38:36.063Z,2.92
2022-10-20T11:44:21.816Z,8.10
2022-10-20T11:46:53.309Z,3.13
2022-10-20T11:49:20.827Z,3.83
2022-10-20T11:52:06.735Z,9.35
2022-10-20T11:55:00.503Z,4.78
2022-10-20T11:57:42.131Z,3.58
2022-10-20T12:03:17.147Z,4.05
2022-10-20T12:06:06.308Z,3.65
2022-10-20T12:08:54.403Z,2.90
2022-10-20T12:11:35.590Z,4.68
2022-10-20T12:14:24.062Z,2.38
2022-10-20T12:16:54.455Z,3.55
2022-10-20T12:19:30.163Z,2.40
2022-10-20T12:22:00.719Z,3.20
2022-10-20T12:24:41.025Z,2.88
2022-10-20T12:27:11.526Z,2.65
2022-10-20T12:29:38.596Z,4.93
2022-10-20T12:32:27.391Z,4.53
2022-10-20T12:35:02.153Z,5.13
2022-10-20T12:37:29.360Z,3.72
2022-10-20T12:40:18.030Z,4.40
2022-10-20T12:42:52.098Z,4.97
2022-10-20T12:45:19.127Z,6.43
2022-10-20T12:47:53.984Z,6.90
2022-10-20T12:50:42.571Z,3.90
2022-10-20T12:53:29.561Z,5.65
2022-10-20T12:56:06.759Z,5.85
2022-10-20T12:58:39.356Z,7.65
2022-10-20T13:01:10.042Z,6.60
2022-10-20T13:03:48.202Z,7.80
2022-10-20T13:06:27.919Z,5.28
2022-10-20T13:09:07.626Z,4.55
2022-10-20T13:11:38.171Z,3.05
2022-10-20T13:14:27.099Z,7.18
2022-10-20T13:17:00.456Z,7.60
2022-10-20T13:19:43.582Z,14.20
2022-10-20T13:22:34.492Z,13.73
2022-10-20T13:25:04.050Z,14.60
2022-10-20T13:27:31.381Z,9.40
2022-10-20T13:29:58.693Z,6.30
2022-10-20T13:33:01.704Z,8.45
2022-10-20T13:36:01.556Z,8.40
2022-10-20T13:38:53.078Z,7.25
2022-10-20T13:41:29.359Z,8.50
2022-10-20T13:44:16.450Z,15.05
2022-10-20T13:47:02.563Z,20.85
2022-10-20T13:49:52.581Z,14.43
2022-10-20T13:52:24.189Z,9.98
2022-10-20T13:54:52.299Z,7.20
2022-10-20T13:57:31.831Z,12.27
2022-10-20T14:00:02.071Z,4.63
2022-10-20T14:02:32.707Z,7.50
2022-10-20T14:05:10.828Z,23.58
2022-10-20T14:07:43.360Z,7.95
2022-10-20T14:10:24.410Z,6.65
2022-10-20T14:12:53.062Z,24.98
2022-10-20T14:15:34.542Z,47.90
2022-10-20T14:18:05.966Z,26.42
2022-10-20T14:20:37.407Z,21.30
2022-10-20T14:23:06.401Z,17.75
2022-10-20T14:25:33.873Z,26.17
2022-10-20T14:28:03.888Z,16.98
2022-10-20T14:30:38.682Z,18.15
2022-10-20T14:33:14.482Z,20.23
2022-10-20T14:35:44.690Z,22.27
2022-10-20T14:38:22.892Z,23.65
2022-10-20T14:40:55.465Z,20.73
2022-10-20T14:43:42.958Z,16.73
2022-10-20T14:46:22.843Z,16.00
2022-10-20T14:48:50.967Z,11.90
2022-10-20T14:51:45.168Z,12.93
2022-10-20T14:54:21.269Z,23.90
2022-10-20T14:56:51.854Z,20.30
2022-10-20T14:59:22.309Z,21.50
2022-10-20T15:02:01.774Z,17.25
2022-10-20T15:04:32.180Z,12.48
2022-10-20T15:07:23.893Z,18.58
2022-10-20T15:09:54.030Z,18.10
2022-10-20T15:12:26.680Z,15.00
2022-10-20T15:15:23.345Z,17.58
2022-10-20T15:18:14.988Z,15.75
2022-10-20T15:20:43.460Z,37.22
2022-10-20T15:23:21.840Z,51.78
2022-10-20T15:25:52.187Z,24.15
2022-10-20T15:28:44.912Z,24.77
2022-10-20T15:31:17.921Z,31.90
2022-10-20T15:33:45.254Z,36.05
2022-10-20T15:36:41.763Z,44.35
2022-10-20T15:39:12.075Z,51.78
2022-10-20T15:41:40.357Z,53.42
2022-10-20T15:44:15.160Z,114.60
2022-10-20T15:46:44.813Z,114.40
2022-10-20T15:49:15.112Z,110.90
2022-10-20T15:51:45.248Z,91.97
2022-10-20T15:54:18.502Z,61.42
2022-10-20T15:56:46.098Z,43.13
2022-10-20T15:59:13.350Z,69.95
2022-10-20T16:01:40.793Z,126.53
2022-10-20T16:04:18.889Z,94.35
2022-10-20T16:06:47.308Z,102.38
2022-10-20T16:09:16.103Z,54.80
2022-10-20T16:11:44.804Z,37.58
2022-10-20T16:14:13.040Z,46.03
2022-10-20T16:16:40.347Z,47.35
2022-10-20T16:19:11.020Z,42.53
2022-10-20T16:21:38.569Z,40.47
2022-10-20T16:24:05.778Z,54.33
2022-10-20T16:26:33.244Z,92.03
2022-10-20T16:29:00.683Z,48.95
2022-10-20T16:31:29.381Z,34.88
2022-10-20T16:33:59.991Z,34.47
2022-10-20T16:36:28.503Z,46.53
2022-10-20T16:38:57.289Z,41.80
2022-10-20T16:41:24.860Z,36.95
2022-10-20T16:43:53.707Z,42.17
2022-10-20T16:46:23.168Z,59.20
2022-10-20T16:48:50.355Z,46.55
2022-10-20T16:51:18.163Z,49.35
2022-10-20T16:53:45.245Z,40.08
2022-10-20T16:56:15.390Z,45.08
2022-10-20T16:58:45.806Z,67.68
2022-10-20T17:01:15.948Z,62.08
2022-10-20T17:03:48.517Z,35.22
2022-10-20T17:06:17.749Z,74.45
2022-10-20T17:08:46.077Z,71.78
2022-10-20T17:11:16.702Z,93.65
2022-10-20T17:13:44.433Z,95.88
2022-10-20T17:16:14.639Z,60.42
2022-10-20T17:18:42.121Z,57.13
2022-10-20T17:21:10.668Z,46.80
2022-10-20T17:23:41.808Z,46.97
2022-10-20T17:26:15.341Z,45.05
2022-10-20T17:28:42.760Z,63.70
2022-10-20T17:31:12.941Z,47.88
2022-10-20T17:33:40.781Z,64.53
2022-10-20T17:36:13.564Z,57.78
2022-10-20T17:38:41.999Z,50.88
2022-10-20T17:41:14.384Z,59.13
2022-10-20T17:43:41.869Z,47.35
2022-10-20T17:46:13.455Z,36.00
2022-10-20T17:48:41.214Z,41.80
2022-10-20T17:51:11.702Z,27.40
2022-10-20T17:53:41.455Z,39.22
2022-10-20T17:56:13.118Z,47.78
2022-10-20T17:58:43.770Z,42.53
2022-10-20T18:01:35.609Z,42.67
2022-10-20T18:04:11.400Z,46.22
2022-10-20T18:06:39.246Z,49.33
2022-10-20T18:09:12.271Z,42.63
2022-10-20T18:11:42.582Z,45.13
2022-10-20T18:14:09.939Z,45.35
2022-10-20T18:16:38.256Z,48.22
2022-10-20T18:19:06.318Z,65.95
2022-10-20T18:21:33.898Z,72.28
2022-10-20T18:24:04.543Z,41.90
2022-10-20T18:26:35.137Z,36.95
2022-10-20T18:29:04.731Z,60.25
2022-10-20T18:31:33.804Z,56.67
2022-10-20T18:34:07.470Z,56.28
2022-10-20T18:36:38.074Z,55.03
2022-10-20T18:39:08.664Z,48.65
2022-10-20T18:41:39.097Z,41.30
2022-10-20T18:44:10.549Z,51.42
2022-10-20T18:46:39.283Z,45.97
2022-10-20T18:49:09.287Z,43.97
2022-10-20T18:51:37.551Z,38.35
2022-10-20T18:54:07.086Z,49.97
2022-10-20T18:56:35.785Z,34.50
2022-10-20T18:59:07.750Z,36.03
2022-10-20T19:01:37.532Z,26.40
2022-10-20T19:04:05.871Z,27.30
2022-10-20T19:06:37.089Z,26.42
2022-10-20T19:09:06.944Z,23.83
2022-10-20T19:11:39.651Z,23.40
2022-10-20T19:14:09.964Z,23.38
2022-10-20T19:16:40.404Z,26.27
2022-10-20T19:19:09.167Z,33.13
2022-10-20T19:21:36.518Z,57.58
2022-10-20T19:24:09.947Z,63.38
2022-10-20T19:26:42.589Z,59.42
2022-10-20T19:29:15.508Z,34.53
2022-10-20T19:31:44.104Z,29.83
2022-10-20T19:34:19.053Z,23.45
2022-10-20T19:36:46.960Z,23.65
2022-10-20T19:39:19.773Z,26.73
2022-10-20T19:41:47.090Z,23.60
2022-10-20T19:44:17.487Z,19.85
2022-10-20T19:46:46.581Z,18.70
2022-10-20T19:49:14.651Z,20.83
2022-10-20T19:51:42.602Z,27.05
2022-10-20T19:54:09.756Z,26.58
2022-10-20T19:56:37.540Z,27.20
2022-10-20T19:59:05.838Z,24.52
2022-10-20T20:01:36.769Z,23.02
2022-10-20T20:04:04.698Z,33.00
2022-10-20T20:06:33.411Z,35.45
2022-10-20T20:09:03.494Z,24.23
2022-10-20T20:11:31.385Z,24.55
2022-10-20T20:14:01.118Z,25.23
2022-10-20T20:16:29.625Z,25.92
2022-10-20T20:18:57.067Z,37.63
2022-10-20T20:21:25.979Z,58.85
2022-10-20T20:24:01.713Z,35.92
2022-10-20T20:26:34.862Z,36.33
2022-10-20T20:29:02.867Z,29.98
2022-10-20T20:31:30.592Z,37.85
2022-10-20T20:33:57.879Z,51.40
2022-10-20T20:36:27.240Z,44.45
2022-10-20T20:38:57.480Z,36.78
2022-10-20T20:41:27.303Z,59.22
2022-10-20T20:43:54.731Z,48.80
2022-10-20T20:46:23.487Z,40.40
2022-10-20T20:48:51.019Z,30.92
2022-10-20T20:51:18.881Z,38.78
2022-10-20T20:53:45.927Z,22.25
2022-10-20T20:56:15.633Z,17.98
2022-10-20T20:58:49.077Z,17.38
2022-10-20T21:01:24.988Z,19.58
2022-10-20T21:03:56.565Z,15.35
2022-10-20T21:06:33.069Z,15.75
2022-10-20T21:09:06.880Z,19.30
2022-10-20T21:11:34.230Z,12.25
2022-10-20T21:14:01.514Z,12.88
2022-10-20T21:16:30.442Z,12.38
2022-10-20T21:19:00.331Z,17.55
2022-10-20T21:21:30.335Z,23.60
2022-10-20T21:23:58.305Z,36.13
2022-10-20T21:26:27.245Z,37.85
2022-10-20T21:28:56.163Z,28.35
2022-10-20T21:31:25.183Z,24.13
2022-10-20T21:33:54.207Z,26.63
2022-10-20T21:36:22.478Z,38.92
2022-10-20T21:38:49.991Z,46.22
2022-10-20T21:41:18.329Z,31.55
2022-10-20T21:43:48.549Z,29.30
2022-10-20T21:46:21.743Z,31.33
2022-10-20T21:48:51.824Z,26.25
2022-10-20T21:51:25.013Z,19.75
2022-10-20T21:54:03.928Z,19.70
2022-10-20T21:56:34.184Z,15.52
2022-10-20T21:59:01.210Z,27.98
2022-10-20T22:01:28.413Z,18.92
2022-10-20T22:03:55.824Z,29.17
2022-10-20T22:06:25.517Z,21.77
2022-10-20T22:08:58.327Z,27.80
2022-10-20T22:11:30.979Z,23.42
2022-10-20T22:13:58.529Z,31.10
2022-10-20T22:16:30.545Z,26.23
2022-10-20T22:19:00.368Z,12.57
2022-10-20T22:21:29.713Z,43.95
2022-10-20T22:23:58.736Z,23.70
2022-10-20T22:26:27.791Z,16.67
2022-10-20T22:28:55.248Z,11.57
2022-10-20T22:31:23.287Z,11.00
2022-10-20T22:33:58.466Z,15.20
2022-10-20T22:36:26.400Z,23.27
2022-10-20T22:38:53.450Z,14.32
2022-10-20T22:41:20.710Z,31.20
2022-10-20T22:43:48.100Z,23.50
2022-10-20T22:46:18.103Z,23.00
2022-10-20T22:48:46.332Z,22.15
2022-10-20T22:51:13.946Z,23.40
2022-10-20T22:53:41.339Z,25.92
2022-10-20T22:56:17.087Z,12.98
2022-10-20T22:58:44.798Z,11.25
2022-10-20T23:01:17.822Z,11.95
2022-10-20T23:03:45.407Z,16.33
2022-10-20T23:06:16.412Z,14.70
2022-10-20T23:08:46.377Z,26.80
2022-10-20T23:11:15.250Z,29.33
2022-10-20T23:13:42.326Z,26.35
2022-10-20T23:16:10.387Z,13.02
2022-10-20T23:18:37.670Z,12.05
2022-10-20T23:21:05.289Z,15.45
2022-10-20T23:23:32.896Z,20.38
2022-10-20T23:26:02.304Z,11.40
2022-10-20T23:28:31.928Z,22.98
2022-10-20T23:31:05.951Z,10.05
2022-10-20T23:33:33.049Z,11.45
2022-10-20T23:36:00.255Z,10.45
2022-10-20T23:38:27.219Z,11.60
2022-10-20T23:40:54.413Z,10.70
2022-10-20T23:43:21.506Z,11.98
2022-10-20T23:45:49.453Z,10.38
2022-10-20T23:48:16.887Z,10.48
2022-10-20T23:50:44.680Z,10.45
2022-10-20T23:53:12.153Z,11.55
2022-10-20T23:55:39.486Z,13.68
2022-10-20T23:58:06.555Z,12.00
